sensor_id;sensor_type;location;lat;lon;timestamp;P1;durP1;ratioP1;P2;durP2;ratioP2
48963;SDS011;34776;48.180;16.420;2023-03-20T09:03:34;13.60;;;6.55;;
48963;SDS011;34776;48.180;16.420;2023-03-20T09:06:03;8.77;;;6.30;;
48963;SDS011;34776;48.180;16.420;2023-03-20T09:08:30;12.02;;;5.85;;
48963;SDS011;34776;48.180;16.420;2023-03-20T09:10:56;6.55;;;5.55;;
48963;SDS011;34776;48.180;16.420;2023-03-20T09:13:21;14.13;;;6.65;;
48963;SDS011;34776;48.180;16.420;2023-03-20T09:15:47;11.35;;;6.43;;
48963;SDS011;34776;48.180;16.420;2023-03-20T09:18:12;7.13;;;6.07;;
48963;SDS011;34776;48.180;16.420;2023-03-20T09:20:37;9.57;;;5.55;;
48963;SDS011;34776;48.180;16.420;2023-03-20T09:23:03;7.55;;;5.30;;
48963;SDS011;34776;48.180;16.420;2023-03-20T09:25:28;13.07;;;6.35;;
48963;SDS011;34776;48.180;16.420;2023-03-20T09:27:53;8.93;;;6.13;;
48963;SDS011;34776;48.180;16.420;2023-03-20T09:30:19;6.53;;;4.93;;
48963;SDS011;34776;48.180;16.420;2023-03-20T09:32:46;76.57;;;8.20;;
48963;SDS011;34776;48.180;16.420;2023-03-20T09:35:12;16.73;;;6.13;;
48963;SDS011;34776;48.180;16.420;2023-03-20T09:37:37;7.25;;;5.55;;
48963;SDS011;34776;48.180;16.420;2023-03-20T09:40:02;8.13;;;4.75;;
48963;SDS011;34776;48.180;16.420;2023-03-20T09:51:09;5.45;;;4.00;;
48963;SDS011;34776;48.180;16.420;2023-03-20T09:53:24;6.80;;;3.40;;
48963;SDS011;34776;48.180;16.420;2023-03-20T09:55:58;4.65;;;3.00;;
48963;SDS011;34776;48.180;16.420;2023-03-20T09:58:31;4.82;;;3.55;;
48963;SDS011;34776;48.180;16.420;2023-03-20T10:01:00;6.70;;;4.10;;
48963;SDS011;34776;48.180;16.420;2023-03-20T10:03:31;7.55;;;3.47;;
48963;SDS011;34776;48.180;16.420;2023-03-20T10:06:11;4.78;;;3.50;;
48963;SDS011;34776;48.180;16.420;2023-03-20T10:08:38;7.70;;;3.85;;
48963;SDS011;34776;48.180;16.420;2023-03-20T10:24:54;6.25;;;3.50;;
48963;SDS011;34776;48.180;16.420;2023-03-20T10:27:22;13.27;;;4.10;;
48963;SDS011;34776;48.180;16.420;2023-03-20T10:33:26;9.37;;;3.20;;
48963;SDS011;34776;48.180;16.420;2023-03-20T10:36:25;7.10;;;3.10;;
48963;SDS011;34776;48.180;16.420;2023-03-20T10:41:56;5.63;;;3.53;;
48963;SDS011;34776;48.180;16.420;2023-03-20T10:44:48;8.95;;;3.90;;
48963;SDS011;34776;48.180;16.420;2023-03-20T10:47:15;5.03;;;3.30;;
48963;SDS011;34776;48.180;16.420;2023-03-20T10:49:45;7.15;;;5.60;;
48963;SDS011;34776;48.180;16.420;2023-03-20T10:52:16;7.88;;;4.35;;
48963;SDS011;34776;48.180;16.420;2023-03-20T10:54:45;7.53;;;4.97;;
48963;SDS011;34776;48.180;16.420;2023-03-20T10:57:23;5.85;;;3.58;;
48963;SDS011;34776;48.180;16.420;2023-03-20T10:59:53;6.45;;;3.50;;
48963;SDS011;34776;48.180;16.420;2023-03-20T11:02:21;9.93;;;4.47;;
48963;SDS011;34776;48.180;16.420;2023-03-20T11:04:49;7.25;;;3.72;;
48963;SDS011;34776;48.180;16.420;2023-03-20T11:07:27;5.43;;;3.55;;
48963;SDS011;34776;48.180;16.420;2023-03-20T11:12:30;9.23;;;3.80;;
48963;SDS011;34776;48.180;16.420;2023-03-20T11:14:58;5.43;;;3.28;;
48963;SDS011;34776;48.180;16.420;2023-03-20T11:17:27;7.82;;;3.80;;
48963;SDS011;34776;48.180;16.420;2023-03-20T11:19:53;5.03;;;3.10;;
48963;SDS011;34776;48.180;16.420;2023-03-20T11:22:28;6.38;;;3.35;;
48963;SDS011;34776;48.180;16.420;2023-03-20T11:24:54;4.47;;;3.83;;
48963;SDS011;34776;48.180;16.420;2023-03-20T11:27:26;8.88;;;3.58;;
48963;SDS011;34776;48.180;16.420;2023-03-20T11:29:52;4.40;;;3.38;;
48963;SDS011;34776;48.180;16.420;2023-03-20T11:32:32;9.35;;;4.15;;
48963;SDS011;34776;48.180;16.420;2023-03-20T11:40:56;7.55;;;3.22;;
48963;SDS011;34776;48.180;16.420;2023-03-20T11:43:23;6.32;;;4.05;;
48963;SDS011;34776;48.180;16.420;2023-03-20T11:45:55;5.55;;;3.08;;
48963;SDS011;34776;48.180;16.420;2023-03-20T11:48:23;8.27;;;4.10;;
48963;SDS011;34776;48.180;16.420;2023-03-20T11:51:05;9.10;;;3.65;;
48963;SDS011;34776;48.180;16.420;2023-03-20T12:03:57;5.32;;;3.97;;
48963;SDS011;34776;48.180;16.420;2023-03-20T12:06:28;6.18;;;4.60;;
48963;SDS011;34776;48.180;16.420;2023-03-20T12:09:10;5.55;;;4.20;;
48963;SDS011;34776;48.180;16.420;2023-03-20T12:11:48;5.28;;;3.90;;
48963;SDS011;34776;48.180;16.420;2023-03-20T12:14:22;8.30;;;3.85;;
48963;SDS011;34776;48.180;16.420;2023-03-20T12:16:55;10.23;;;3.88;;
48963;SDS011;34776;48.180;16.420;2023-03-20T12:19:43;4.57;;;4.00;;
48963;SDS011;34776;48.180;16.420;2023-03-20T12:22:30;15.73;;;4.75;;
48963;SDS011;34776;48.180;16.420;2023-03-20T12:25:16;6.20;;;3.90;;
48963;SDS011;34776;48.180;16.420;2023-03-20T12:37:07;5.10;;;4.32;;
48963;SDS011;34776;48.180;16.420;2023-03-20T12:39:36;4.82;;;3.97;;
48963;SDS011;34776;48.180;16.420;2023-03-20T12:42:22;4.22;;;3.83;;
48963;SDS011;34776;48.180;16.420;2023-03-20T12:45:10;7.25;;;3.55;;
48963;SDS011;34776;48.180;16.420;2023-03-20T12:50:35;22.33;;;4.80;;
48963;SDS011;34776;48.180;16.420;2023-03-20T12:53:16;8.75;;;4.07;;
48963;SDS011;34776;48.180;16.420;2023-03-20T13:01:26;5.25;;;3.67;;
48963;SDS011;34776;48.180;16.420;2023-03-20T13:07:16;4.30;;;3.13;;
48963;SDS011;34776;48.180;16.420;2023-03-20T13:09:51;7.07;;;3.08;;
48963;SDS011;34776;48.180;16.420;2023-03-20T13:15:35;8.43;;;3.00;;
48963;SDS011;34776;48.180;16.420;2023-03-20T13:21:15;7.75;;;3.00;;
48963;SDS011;34776;48.180;16.420;2023-03-20T13:23:52;5.68;;;3.78;;
48963;SDS011;34776;48.180;16.420;2023-03-20T13:29:39;4.13;;;3.53;;
48963;SDS011;34776;48.180;16.420;2023-03-20T13:35:52;6.15;;;3.67;;
48963;SDS011;34776;48.180;16.420;2023-03-20T13:38:13;4.78;;;3.28;;
48963;SDS011;34776;48.180;16.420;2023-03-20T13:40:45;7.50;;;3.38;;
48963;SDS011;34776;48.180;16.420;2023-03-20T13:45:48;7.85;;;3.80;;
48963;SDS011;34776;48.180;16.420;2023-03-20T13:48:27;5.78;;;3.47;;
48963;SDS011;34776;48.180;16.420;2023-03-20T13:53:37;9.50;;;3.40;;
48963;SDS011;34776;48.180;16.420;2023-03-20T13:59:01;12.20;;;3.53;;
48963;SDS011;34776;48.180;16.420;2023-03-20T14:01:49;9.60;;;3.20;;
48963;SDS011;34776;48.180;16.420;2023-03-20T14:04:40;8.90;;;3.13;;
48963;SDS011;34776;48.180;16.420;2023-03-20T14:15:35;4.95;;;3.42;;
48963;SDS011;34776;48.180;16.420;2023-03-20T14:18:10;4.33;;;3.20;;
48963;SDS011;34776;48.180;16.420;2023-03-20T14:20:40;12.60;;;3.47;;
48963;SDS011;34776;48.180;16.420;2023-03-20T14:23:15;6.85;;;3.58;;
48963;SDS011;34776;48.180;16.420;2023-03-20T14:25:55;12.95;;;4.20;;
48963;SDS011;34776;48.180;16.420;2023-03-20T14:28:26;11.82;;;3.80;;
48963;SDS011;34776;48.180;16.420;2023-03-20T14:37:00;5.20;;;3.65;;
48963;SDS011;34776;48.180;16.420;2023-03-20T14:39:49;16.60;;;3.97;;
48963;SDS011;34776;48.180;16.420;2023-03-20T14:42:25;6.05;;;3.53;;
48963;SDS011;34776;48.180;16.420;2023-03-20T14:48:34;5.30;;;4.00;;
48963;SDS011;34776;48.180;16.420;2023-03-20T14:51:19;9.00;;;3.70;;
48963;SDS011;34776;48.180;16.420;2023-03-20T14:54:41;19.65;;;4.82;;
48963;SDS011;34776;48.180;16.420;2023-03-20T14:56:54;13.60;;;4.47;;
48963;SDS011;34776;48.180;16.420;2023-03-20T14:59:31;4.78;;;3.80;;
48963;SDS011;34776;48.180;16.420;2023-03-20T15:02:00;9.68;;;4.32;;
48963;SDS011;34776;48.180;16.420;2023-03-20T15:07:02;6.45;;;3.80;;
48963;SDS011;34776;48.180;16.420;2023-03-20T15:09:40;9.65;;;3.45;;
48963;SDS011;34776;48.180;16.420;2023-03-20T15:12:08;6.10;;;3.60;;
48963;SDS011;34776;48.180;16.420;2023-03-20T15:14:40;6.50;;;3.40;;
48963;SDS011;34776;48.180;16.420;2023-03-20T15:17:21;5.07;;;3.50;;
48963;SDS011;34776;48.180;16.420;2023-03-20T15:19:48;7.28;;;3.50;;
48963;SDS011;34776;48.180;16.420;2023-03-20T15:22:16;6.68;;;4.10;;
48963;SDS011;34776;48.180;16.420;2023-03-20T15:24:51;7.05;;;3.88;;
48963;SDS011;34776;48.180;16.420;2023-03-20T15:27:17;6.20;;;4.57;;
48963;SDS011;34776;48.180;16.420;2023-03-20T15:29:49;6.38;;;4.07;;
48963;SDS011;34776;48.180;16.420;2023-03-20T15:32:19;4.17;;;2.97;;
48963;SDS011;34776;48.180;16.420;2023-03-20T15:34:45;8.13;;;3.53;;
48963;SDS011;34776;48.180;16.420;2023-03-20T15:37:13;5.13;;;3.30;;
48963;SDS011;34776;48.180;16.420;2023-03-20T15:39:41;6.47;;;3.53;;
48963;SDS011;34776;48.180;16.420;2023-03-20T15:42:11;4.90;;;3.28;;
48963;SDS011;34776;48.180;16.420;2023-03-20T15:44:40;5.15;;;3.28;;
48963;SDS011;34776;48.180;16.420;2023-03-20T15:49:38;10.05;;;3.00;;
48963;SDS011;34776;48.180;16.420;2023-03-20T15:54:53;5.82;;;3.63;;
48963;SDS011;34776;48.180;16.420;2023-03-20T15:57:23;4.43;;;3.28;;
48963;SDS011;34776;48.180;16.420;2023-03-20T15:59:54;5.43;;;3.20;;
48963;SDS011;34776;48.180;16.420;2023-03-20T16:02:20;5.43;;;3.33;;
48963;SDS011;34776;48.180;16.420;2023-03-20T16:04:50;6.03;;;3.15;;
48963;SDS011;34776;48.180;16.420;2023-03-20T16:07:22;4.40;;;2.95;;
48963;SDS011;34776;48.180;16.420;2023-03-20T16:09:51;6.35;;;3.20;;
48963;SDS011;34776;48.180;16.420;2023-03-20T16:12:17;6.47;;;3.22;;
48963;SDS011;34776;48.180;16.420;2023-03-20T16:14:44;6.90;;;4.80;;
48963;SDS011;34776;48.180;16.420;2023-03-20T16:17:12;10.35;;;3.65;;
48963;SDS011;34776;48.180;16.420;2023-03-20T16:19:40;5.18;;;3.20;;
48963;SDS011;34776;48.180;16.420;2023-03-20T16:22:23;5.68;;;3.13;;
48963;SDS011;34776;48.180;16.420;2023-03-20T16:24:55;4.65;;;3.95;;
48963;SDS011;34776;48.180;16.420;2023-03-20T16:27:24;6.45;;;3.42;;
48963;SDS011;34776;48.180;16.420;2023-03-20T16:29:52;5.47;;;3.30;;
48963;SDS011;34776;48.180;16.420;2023-03-20T16:34:50;20.77;;;10.43;;
48963;SDS011;34776;48.180;16.420;2023-03-20T16:37:25;5.00;;;4.22;;
48963;SDS011;34776;48.180;16.420;2023-03-20T16:40:13;8.73;;;4.03;;
48963;SDS011;34776;48.180;16.420;2023-03-20T16:42:51;4.53;;;3.15;;
48963;SDS011;34776;48.180;16.420;2023-03-20T16:45:32;11.80;;;4.03;;
48963;SDS011;34776;48.180;16.420;2023-03-20T16:50:34;5.95;;;3.50;;
48963;SDS011;34776;48.180;16.420;2023-03-20T16:53:01;5.57;;;4.28;;
48963;SDS011;34776;48.180;16.420;2023-03-20T16:55:29;4.38;;;3.95;;
48963;SDS011;34776;48.180;16.420;2023-03-20T16:58:02;5.72;;;3.75;;
48963;SDS011;34776;48.180;16.420;2023-03-20T17:00:31;6.63;;;4.10;;
48963;SDS011;34776;48.180;16.420;2023-03-20T17:06:07;7.60;;;4.03;;
48963;SDS011;34776;48.180;16.420;2023-03-20T17:08:55;6.95;;;4.05;;
48963;SDS011;34776;48.180;16.420;2023-03-20T17:11:33;6.03;;;4.53;;
48963;SDS011;34776;48.180;16.420;2023-03-20T17:14:00;7.60;;;5.10;;
48963;SDS011;34776;48.180;16.420;2023-03-20T17:16:28;6.50;;;5.00;;
48963;SDS011;34776;48.180;16.420;2023-03-20T17:21:28;5.03;;;4.53;;
48963;SDS011;34776;48.180;16.420;2023-03-20T17:23:54;5.47;;;4.60;;
48963;SDS011;34776;48.180;16.420;2023-03-20T17:26:19;5.05;;;4.03;;
48963;SDS011;34776;48.180;16.420;2023-03-20T17:28:45;6.57;;;5.20;;
48963;SDS011;34776;48.180;16.420;2023-03-20T17:31:12;7.10;;;4.75;;
48963;SDS011;34776;48.180;16.420;2023-03-20T17:33:38;5.93;;;4.82;;
48963;SDS011;34776;48.180;16.420;2023-03-20T17:36:04;6.88;;;4.82;;
48963;SDS011;34776;48.180;16.420;2023-03-20T17:38:38;4.85;;;4.35;;
48963;SDS011;34776;48.180;16.420;2023-03-20T17:41:04;7.30;;;5.25;;
48963;SDS011;34776;48.180;16.420;2023-03-20T17:43:29;7.35;;;4.82;;
48963;SDS011;34776;48.180;16.420;2023-03-20T17:45:54;8.10;;;4.57;;
48963;SDS011;34776;48.180;16.420;2023-03-20T17:48:20;5.00;;;4.50;;
48963;SDS011;34776;48.180;16.420;2023-03-20T17:50:46;5.82;;;5.22;;
48963;SDS011;34776;48.180;16.420;2023-03-20T17:53:18;5.68;;;5.13;;
48963;SDS011;34776;48.180;16.420;2023-03-20T17:55:49;6.32;;;5.07;;
48963;SDS011;34776;48.180;16.420;2023-03-20T17:58:16;6.32;;;5.20;;
48963;SDS011;34776;48.180;16.420;2023-03-20T18:00:42;8.98;;;5.65;;
48963;SDS011;34776;48.180;16.420;2023-03-20T18:03:08;6.93;;;5.85;;
48963;SDS011;34776;48.180;16.420;2023-03-20T18:05:34;6.78;;;5.18;;
48963;SDS011;34776;48.180;16.420;2023-03-20T18:08:03;7.53;;;5.43;;
48963;SDS011;34776;48.180;16.420;2023-03-20T18:10:29;6.43;;;5.13;;
48963;SDS011;34776;48.180;16.420;2023-03-20T18:12:58;5.03;;;4.53;;
48963;SDS011;34776;48.180;16.420;2023-03-20T18:15:24;6.68;;;4.97;;
48963;SDS011;34776;48.180;16.420;2023-03-20T18:17:50;6.03;;;5.38;;
48963;SDS011;34776;48.180;16.420;2023-03-20T18:20:29;6.80;;;6.10;;
48963;SDS011;34776;48.180;16.420;2023-03-20T18:22:57;8.85;;;6.32;;
48963;SDS011;34776;48.180;16.420;2023-03-20T18:25:22;6.93;;;5.95;;
48963;SDS011;34776;48.180;16.420;2023-03-20T18:27:50;9.32;;;6.30;;
48963;SDS011;34776;48.180;16.420;2023-03-20T18:30:18;7.35;;;6.65;;
48963;SDS011;34776;48.180;16.420;2023-03-20T18:32:45;6.25;;;5.70;;
48963;SDS011;34776;48.180;16.420;2023-03-20T18:35:10;8.35;;;5.88;;
48963;SDS011;34776;48.180;16.420;2023-03-20T18:37:36;7.20;;;6.50;;
48963;SDS011;34776;48.180;16.420;2023-03-20T18:40:03;7.75;;;7.00;;
48963;SDS011;34776;48.180;16.420;2023-03-20T18:42:31;6.90;;;5.97;;
48963;SDS011;34776;48.180;16.420;2023-03-20T18:44:57;6.40;;;5.68;;
48963;SDS011;34776;48.180;16.420;2023-03-20T18:47:22;7.07;;;6.38;;
48963;SDS011;34776;48.180;16.420;2023-03-20T18:49:47;7.32;;;6.63;;
48963;SDS011;34776;48.180;16.420;2023-03-20T18:52:14;20.77;;;12.95;;
48963;SDS011;34776;48.180;16.420;2023-03-20T18:54:39;10.77;;;8.48;;
48963;SDS011;34776;48.180;16.420;2023-03-20T18:57:05;9.00;;;6.57;;
48963;SDS011;34776;48.180;16.420;2023-03-20T18:59:30;9.68;;;6.80;;
48963;SDS011;34776;48.180;16.420;2023-03-20T19:01:55;25.58;;;16.10;;
48963;SDS011;34776;48.180;16.420;2023-03-20T19:04:21;9.73;;;7.30;;
48963;SDS011;34776;48.180;16.420;2023-03-20T19:06:47;8.63;;;6.88;;
48963;SDS011;34776;48.180;16.420;2023-03-20T19:09:13;7.32;;;6.60;;
48963;SDS011;34776;48.180;16.420;2023-03-20T19:11:39;7.13;;;6.45;;
48963;SDS011;34776;48.180;16.420;2023-03-20T19:14:05;8.65;;;7.05;;
48963;SDS011;34776;48.180;16.420;2023-03-20T19:16:31;8.27;;;6.72;;
48963;SDS011;34776;48.180;16.420;2023-03-20T19:18:59;8.45;;;7.15;;
48963;SDS011;34776;48.180;16.420;2023-03-20T19:21:27;6.93;;;6.30;;
48963;SDS011;34776;48.180;16.420;2023-03-20T19:23:53;7.45;;;6.60;;
48963;SDS011;34776;48.180;16.420;2023-03-20T19:26:21;8.95;;;7.00;;
48963;SDS011;34776;48.180;16.420;2023-03-20T19:28:51;6.78;;;6.18;;
48963;SDS011;34776;48.180;16.420;2023-03-20T19:31:17;9.73;;;7.28;;
48963;SDS011;34776;48.180;16.420;2023-03-20T19:33:43;7.50;;;6.75;;
48963;SDS011;34776;48.180;16.420;2023-03-20T19:36:25;8.13;;;7.32;;
48963;SDS011;34776;48.180;16.420;2023-03-20T19:38:55;7.82;;;7.03;;
48963;SDS011;34776;48.180;16.420;2023-03-20T19:41:22;8.45;;;7.53;;
48963;SDS011;34776;48.180;16.420;2023-03-20T19:43:48;8.85;;;7.95;;
48963;SDS011;34776;48.180;16.420;2023-03-20T19:46:14;8.13;;;7.22;;
48963;SDS011;34776;48.180;16.420;2023-03-20T19:48:41;10.63;;;8.05;;
48963;SDS011;34776;48.180;16.420;2023-03-20T19:51:18;7.50;;;6.78;;
48963;SDS011;34776;48.180;16.420;2023-03-20T19:53:45;8.98;;;6.75;;
48963;SDS011;34776;48.180;16.420;2023-03-20T19:56:11;6.85;;;6.15;;
48963;SDS011;34776;48.180;16.420;2023-03-20T19:58:39;7.22;;;6.50;;
48963;SDS011;34776;48.180;16.420;2023-03-20T20:01:05;7.10;;;6.40;;
48963;SDS011;34776;48.180;16.420;2023-03-20T20:03:32;8.23;;;7.15;;
48963;SDS011;34776;48.180;16.420;2023-03-20T20:05:58;7.20;;;6.50;;
48963;SDS011;34776;48.180;16.420;2023-03-20T20:08:26;8.80;;;6.65;;
48963;SDS011;34776;48.180;16.420;2023-03-20T20:10:52;11.77;;;9.20;;
48963;SDS011;34776;48.180;16.420;2023-03-20T20:13:22;8.82;;;7.93;;
48963;SDS011;34776;48.180;16.420;2023-03-20T20:15:50;8.45;;;7.45;;
48963;SDS011;34776;48.180;16.420;2023-03-20T20:18:15;10.15;;;7.38;;
48963;SDS011;34776;48.180;16.420;2023-03-20T20:20:42;7.15;;;6.55;;
48963;SDS011;34776;48.180;16.420;2023-03-20T20:23:08;7.55;;;6.85;;
48963;SDS011;34776;48.180;16.420;2023-03-20T20:25:35;8.70;;;6.80;;
48963;SDS011;34776;48.180;16.420;2023-03-20T20:28:01;7.57;;;6.75;;
48963;SDS011;34776;48.180;16.420;2023-03-20T20:30:26;7.07;;;6.38;;
48963;SDS011;34776;48.180;16.420;2023-03-20T20:32:52;8.05;;;7.25;;
48963;SDS011;34776;48.180;16.420;2023-03-20T20:35:17;7.82;;;7.03;;
48963;SDS011;34776;48.180;16.420;2023-03-20T20:37:43;7.15;;;6.43;;
48963;SDS011;34776;48.180;16.420;2023-03-20T20:40:11;7.78;;;6.97;;
48963;SDS011;34776;48.180;16.420;2023-03-20T20:42:38;6.90;;;6.20;;
48963;SDS011;34776;48.180;16.420;2023-03-20T20:45:04;9.68;;;6.45;;
48963;SDS011;34776;48.180;16.420;2023-03-20T20:47:32;7.43;;;6.72;;
48963;SDS011;34776;48.180;16.420;2023-03-20T20:49:57;7.15;;;6.53;;
48963;SDS011;34776;48.180;16.420;2023-03-20T20:52:23;8.18;;;6.80;;
48963;SDS011;34776;48.180;16.420;2023-03-20T20:54:49;8.35;;;6.95;;
48963;SDS011;34776;48.180;16.420;2023-03-20T20:57:14;7.95;;;6.65;;
48963;SDS011;34776;48.180;16.420;2023-03-20T20:59:39;7.78;;;6.97;;
48963;SDS011;34776;48.180;16.420;2023-03-20T21:02:06;6.97;;;6.25;;
48963;SDS011;34776;48.180;16.420;2023-03-20T21:04:40;8.25;;;7.03;;
48963;SDS011;34776;48.180;16.420;2023-03-20T21:07:09;6.63;;;5.95;;
48963;SDS011;34776;48.180;16.420;2023-03-20T21:09:35;7.78;;;6.32;;
48963;SDS011;34776;48.180;16.420;2023-03-20T21:12:01;8.40;;;6.43;;
48963;SDS011;34776;48.180;16.420;2023-03-20T21:14:27;8.15;;;7.03;;
48963;SDS011;34776;48.180;16.420;2023-03-20T21:16:52;7.18;;;6.47;;
48963;SDS011;34776;48.180;16.420;2023-03-20T21:19:24;6.93;;;6.22;;
48963;SDS011;34776;48.180;16.420;2023-03-20T21:21:51;9.75;;;6.97;;
48963;SDS011;34776;48.180;16.420;2023-03-20T21:24:16;7.22;;;6.53;;
48963;SDS011;34776;48.180;16.420;2023-03-20T21:26:41;7.75;;;6.35;;
48963;SDS011;34776;48.180;16.420;2023-03-20T21:29:07;7.55;;;6.82;;
48963;SDS011;34776;48.180;16.420;2023-03-20T21:31:34;7.95;;;7.15;;
48963;SDS011;34776;48.180;16.420;2023-03-20T21:33:59;7.25;;;6.55;;
48963;SDS011;34776;48.180;16.420;2023-03-20T21:36:24;6.10;;;5.53;;
48963;SDS011;34776;48.180;16.420;2023-03-20T21:38:50;6.75;;;6.15;;
48963;SDS011;34776;48.180;16.420;2023-03-20T21:41:15;7.22;;;5.93;;
48963;SDS011;34776;48.180;16.420;2023-03-20T21:43:41;7.35;;;6.45;;
48963;SDS011;34776;48.180;16.420;2023-03-20T21:46:10;5.97;;;5.45;;
48963;SDS011;34776;48.180;16.420;2023-03-20T21:48:36;6.75;;;5.55;;
48963;SDS011;34776;48.180;16.420;2023-03-20T21:51:02;6.82;;;5.90;;
48963;SDS011;34776;48.180;16.420;2023-03-20T21:53:27;6.30;;;5.70;;
48963;SDS011;34776;48.180;16.420;2023-03-20T21:55:53;5.93;;;5.32;;
48963;SDS011;34776;48.180;16.420;2023-03-20T21:58:18;5.60;;;4.65;;
48963;SDS011;34776;48.180;16.420;2023-03-20T22:00:44;7.45;;;5.65;;
48963;SDS011;34776;48.180;16.420;2023-03-20T22:03:10;8.40;;;6.20;;
48963;SDS011;34776;48.180;16.420;2023-03-20T22:05:38;7.22;;;5.90;;
48963;SDS011;34776;48.180;16.420;2023-03-20T22:08:04;6.50;;;5.78;;
48963;SDS011;34776;48.180;16.420;2023-03-20T22:10:30;8.80;;;5.32;;
48963;SDS011;34776;48.180;16.420;2023-03-20T22:12:55;7.70;;;5.50;;
48963;SDS011;34776;48.180;16.420;2023-03-20T22:15:21;6.38;;;5.75;;
48963;SDS011;34776;48.180;16.420;2023-03-20T22:17:47;8.25;;;6.57;;
48963;SDS011;34776;48.180;16.420;2023-03-20T22:20:14;6.32;;;5.72;;
48963;SDS011;34776;48.180;16.420;2023-03-20T22:22:40;8.35;;;6.03;;
48963;SDS011;34776;48.180;16.420;2023-03-20T22:25:05;6.97;;;6.25;;
48963;SDS011;34776;48.180;16.420;2023-03-20T22:27:31;6.40;;;5.20;;
48963;SDS011;34776;48.180;16.420;2023-03-20T22:29:56;6.40;;;5.25;;
48963;SDS011;34776;48.180;16.420;2023-03-20T22:32:21;8.07;;;5.45;;
48963;SDS011;34776;48.180;16.420;2023-03-20T22:34:47;6.10;;;5.50;;
48963;SDS011;34776;48.180;16.420;2023-03-20T22:37:12;7.05;;;6.22;;
48963;SDS011;34776;48.180;16.420;2023-03-20T22:39:37;8.63;;;5.47;;
48963;SDS011;34776;48.180;16.420;2023-03-20T22:42:03;6.45;;;5.63;;
48963;SDS011;34776;48.180;16.420;2023-03-20T22:44:28;5.90;;;5.30;;
48963;SDS011;34776;48.180;16.420;2023-03-20T22:46:54;9.05;;;6.25;;
48963;SDS011;34776;48.180;16.420;2023-03-20T22:49:19;7.20;;;6.18;;
48963;SDS011;34776;48.180;16.420;2023-03-20T22:51:44;6.47;;;5.85;;
48963;SDS011;34776;48.180;16.420;2023-03-20T22:54:10;9.27;;;5.85;;
48963;SDS011;34776;48.180;16.420;2023-03-20T22:56:35;7.55;;;6.50;;
48963;SDS011;34776;48.180;16.420;2023-03-20T22:59:01;6.00;;;5.45;;
48963;SDS011;34776;48.180;16.420;2023-03-20T23:01:26;6.45;;;5.70;;
48963;SDS011;34776;48.180;16.420;2023-03-20T23:03:52;7.10;;;6.40;;
48963;SDS011;34776;48.180;16.420;2023-03-20T23:08:49;7.22;;;6.22;;
48963;SDS011;34776;48.180;16.420;2023-03-20T23:11:16;7.20;;;6.50;;
48963;SDS011;34776;48.180;16.420;2023-03-20T23:13:42;6.90;;;6.20;;
48963;SDS011;34776;48.180;16.420;2023-03-20T23:16:08;7.35;;;6.68;;
48963;SDS011;34776;48.180;16.420;2023-03-20T23:18:35;10.10;;;7.82;;
48963;SDS011;34776;48.180;16.420;2023-03-20T23:21:00;8.57;;;6.80;;
48963;SDS011;34776;48.180;16.420;2023-03-20T23:23:27;7.35;;;6.65;;
48963;SDS011;34776;48.180;16.420;2023-03-20T23:26:06;7.57;;;6.32;;
48963;SDS011;34776;48.180;16.420;2023-03-20T23:28:36;6.60;;;6.00;;
48963;SDS011;34776;48.180;16.420;2023-03-20T23:31:04;8.20;;;7.43;;
48963;SDS011;34776;48.180;16.420;2023-03-20T23:33:32;7.05;;;6.40;;
48963;SDS011;34776;48.180;16.420;2023-03-20T23:35:58;7.22;;;6.53;;
48963;SDS011;34776;48.180;16.420;2023-03-20T23:38:23;7.57;;;6.80;;
48963;SDS011;34776;48.180;16.420;2023-03-20T23:40:49;7.40;;;6.70;;
48963;SDS011;34776;48.180;16.420;2023-03-20T23:43:15;8.25;;;7.05;;
48963;SDS011;34776;48.180;16.420;2023-03-20T23:45:41;7.43;;;6.72;;
48963;SDS011;34776;48.180;16.420;2023-03-20T23:48:09;6.97;;;6.28;;
48963;SDS011;34776;48.180;16.420;2023-03-20T23:50:34;6.88;;;6.18;;
48963;SDS011;34776;48.180;16.420;2023-03-20T23:52:59;6.63;;;6.05;;
48963;SDS011;34776;48.180;16.420;2023-03-20T23:55:25;6.35;;;5.65;;
48963;SDS011;34776;48.180;16.420;2023-03-20T23:57:50;7.07;;;6.32;;
